Main page
METAR-TAF:

METAR-TAF

Airports :

Atlanta Regional Airport

Atlanta, Georgia, United States

latitude: 33-21-19N, longitude: 084-34-01W, elevation: 807 ft

Current weather observation

The report was made 17 minutes ago, at 02:53 UTC
Calm wind
Temperature 73°F
Humidity 89%
Pressure 30.07 in. Hg
Visibility: 7 miles
Few clouds at a height of 5500 ft
Scattered clouds at a height of 11000 ft
light rain

METAR: KFFC 190253Z AUTO 00000KT 7SM -RA FEW055 SCT110 23/21 A3007 RMK AO2 RAB22 SLP175 P0002 60003 T02330211 50016 $

Time: 23:10 (03:10 UTC)


TAF: missing

Weather observations and forecasts of more than 4000 airports (METAR and TAF reports).

The available stations are represented by yellow and red dots on the map.

Hover mouse over dot to see the name of the station.

Then click to see weather observations and forecasts.

To change the map : click on the green buttons with a black cross to zoom in, on the green button with a dash to zoom out, or on the green arrows for adjacent maps.


METAR-TAF: